Naps Table

Sunday July 22nd

Sunday July 22nd Naps Table
Selection Race Tipster W L £1 Stake Sky Bet
Nathless 14:00 Red Glasgow Evening Times Jeffrey Ross 0 1 +15.511015 5/23.50
Antagonize 14:00 Red Sunday Telegraph Whistler 0 2 +2.11002 9/43.25
Leapaway (IRE) 14:10 Str Star Andrew Bladen 0 6 -46.1454 3/101.30
Facethepuckout (IRE) 14:20 Cur Daily Star Sunday Moorestyle 0 2 +11.441011 4/15.00
Kiwi Bay 14:35 Red Morning Star Farringdon 0 7 +14.931014 6/17.00
Betty Grable (IRE) 14:35 Red Scottish Sun Jim Delahunt 0 3 -10.93490 12/113.00
Caspian Prince (IRE) 14:55 Cur The i Jon Freeman 0 2 +13.021013 11/43.75
Caspian Prince (IRE) 14:55 Cur Racing UK The Score 0 10 -0.73500 11/43.75
Battle Of Jericho (USA) 14:55 Cur Shropshire Star Andy Morris 0 1 -18.99482 5/16.00
Caspian Prince (IRE) 14:55 Cur Irish Herald Ian Gaughran 0 1 -30.23470 11/43.75
Washington Dc (IRE) 14:55 Cur The Irish Sun 0 7 -41.3459 4/15.00
Tidal Watch (IRE) 15:00 Nab Daily Post Mercury 5 0 -5.2495 4/71.57
Grey Spirit (IRE) 15:10 Red Racing Post Newmarket 3 0 +1.581001 10/111.91
Grey Spirit (IRE) 15:10 Red Scottish Express Chris Goulding 0 1 -1.27499 10/111.91
Ordo Ab Chao (IRE) 15:20 Str Western Morning News West Tip 0 4 -19.93481 11/82.38
Our Reward (IRE) 15:35 Nab Racing Post Lambourn 0 1 +12.881012 9/25.50
Charlie Mon (IRE) 15:35 Nab attheraces.com Lawrence Taylor 0 2 +0.131000 7/24.50
Guerrilla Tactics (IRE) 15:35 Nab Oxford Mail Mark Edwards 0 6 -6.9494 7/24.50
Guerrilla Tactics (IRE) 15:35 Nab Belfast Newsletter Wise Owl 0 2 -14.58486 7/24.50
Whinmoor 15:45 Red Sunday Express Jason Heavey 0 8 -4.78496 5/42.25
Whinmoor 15:45 Red Daily Telegraph Marlborough 0 7 -14.17486 5/42.25
Whinmoor 15:45 Red Racing Post Spotlight 0 4 -26.23474 5/42.25
Sir Derrick (IRE) 15:45 Red Racing and Football Outlook Andrew Mount 0 3 -27.13473 16/117.00
Whinmoor 15:45 Red Daily Mail Robin Goodfellow 0 4 -28.31472 5/42.25
Theflyingportrait (IRE) 15:55 Str Weekender Paul Kealy 0 1 +27.831027 8/19.00
Vosne Romanee 15:55 Str Daily Express The Scout 0 3 +6.081006 11/82.38
Vosne Romanee 15:55 Str Daily Mirror Newsboy 0 10 -16.61484 11/82.38
Terzetto (IRE) 16:05 Cur The Sun On Sunday Sirius 0 2 +12.741012 10/34.33
Jacbequick 16:20 Red The Star 0 2 +13.661013 5/42.25
Special Diamond 16:25 Tip Irish Post Karl Hedley 0 5 -33.5467 8/19.00
Forthefunofit (IRE) 16:30 Str Gloucestershire Echo Melissa Jones 0 6 +14.821014 5/16.00
Pearl Of The West (IRE) 16:40 Cur Irish Daily Star Brian Flanagan 1 0 +6.541006 8/19.00
Cliffs Of Dooneen (IRE) 16:40 Cur Yorkshire Evening Post Lee Sobot 0 1 -17.36483 Evs2.00
Top Chief 16:45 Nab The Times Rob Wright 0 6 +17.51017 11/26.50
Orion's Bow 16:55 Red Yorkshire Post The Duke 0 5 -26.24474 3/14.00
Giant's Treasure (IRE) 16:55 Red The Scotsman Glendale 0 8 -26.65474 9/25.50
The Armed Man 16:55 Red Daily Record Garry Owen 0 2 -34.07466 11/43.75
Classic Theatre (IRE) 17:00 Tip Sheffield Star Fortunatus 1 0 +2.61002 6/42.50
Tea Time Fred 17:20 Nab The Press, York Ebor 0 1 +0.871000 4/15.00
Jennys Day (IRE) 17:20 Nab Racing Post RP Ratings 1 0 -19.47481 9/110.00
Chato (FR) 17:20 Nab The Leader Charlie Croasdale 0 4 -29.58471 7/24.50
Alexandrakollontai (IRE) 17:30 Red The Irish Field Rory Delargy 0 4 +30.991030 6/17.00
Rhigolter Rose (IRE) 17:30 Red Glasgow Herald PicksfromthePaddock 0 6 +3.561003 4/51.80
Fondest 17:30 Red The Sun Templegate 0 1 +2.361002 SP1000
Rhigolter Rose (IRE) 17:30 Red Sunday Mail Rockavon 1 0 -19.38481 4/51.80
Rhigolter Rose (IRE) 17:30 Red The Guardian 0 3 -23.29477 4/51.80
Rhigolter Rose (IRE) 17:30 Red Sky Sports News Alex Hammond 0 1 -25.19475 4/51.80
Alexandrakollontai (IRE) 17:30 Red Liverpool Echo Chris Wright 0 5 -39.18461 6/17.00
Dew Pond 18:00 Red Racing Post The North 0 3 +23.751023 9/110.00
Jan De Heem 18:00 Red sportinglife.com 0 5 -21.58479 6/17.00
Dew Pond 18:00 Red Racing Post Postdata 0 12 -22.88478 9/110.00

© Racing Post